createdAt,value
2023-03-18T00:02:27.994Z,11.27
2023-03-18T00:05:30.854Z,13.00
2023-03-18T00:08:32.822Z,12.97
2023-03-18T00:11:34.239Z,11.33
2023-03-18T00:14:37.824Z,12.23
2023-03-18T00:17:41.141Z,11.77
2023-03-18T00:20:43.056Z,11.93
2023-03-18T00:23:44.453Z,12.30
2023-03-18T00:26:46.336Z,12.07
2023-03-18T00:29:47.842Z,11.20
2023-03-18T00:32:49.637Z,11.73
2023-03-18T00:35:51.162Z,13.17
2023-03-18T00:38:57.454Z,10.23
2023-03-18T00:41:58.980Z,13.47
2023-03-18T00:45:00.484Z,12.10
2023-03-18T00:48:01.915Z,9.87
2023-03-18T00:51:03.802Z,11.00
2023-03-18T00:54:07.857Z,13.50
2023-03-18T00:57:10.778Z,8.73
2023-03-18T01:00:12.976Z,10.47
2023-03-18T01:03:15.197Z,11.67
2023-03-18T01:06:23.332Z,11.37
2023-03-18T01:09:24.860Z,13.63
2023-03-18T01:12:26.279Z,9.87
2023-03-18T01:15:28.208Z,9.80
2023-03-18T01:18:29.994Z,10.43
2023-03-18T01:21:31.974Z,10.70
2023-03-18T01:24:36.441Z,11.73
2023-03-18T01:27:38.554Z,13.63
2023-03-18T01:30:40.897Z,10.33
2023-03-18T01:33:42.363Z,9.87
2023-03-18T01:36:44.203Z,10.67
2023-03-18T01:39:46.575Z,8.40
2023-03-18T01:43:13.574Z,8.87
2023-03-18T01:46:33.039Z,9.97
2023-03-18T01:49:38.792Z,10.43
2023-03-18T01:52:41.583Z,8.20
2023-03-18T01:55:45.272Z,8.83
2023-03-18T01:58:53.714Z,9.23
2023-03-18T02:02:02.755Z,8.87
2023-03-18T02:05:11.137Z,8.53
2023-03-18T02:08:12.978Z,9.77
2023-03-18T02:11:15.863Z,10.93
2023-03-18T02:14:21.834Z,10.77
2023-03-18T02:17:27.033Z,10.60
2023-03-18T02:20:34.310Z,9.93
2023-03-18T02:23:50.869Z,8.17
2023-03-18T02:27:16.149Z,10.33
2023-03-18T02:30:27.003Z,13.50
2023-03-18T02:33:34.479Z,7.80
2023-03-18T02:36:37.157Z,9.50
2023-03-18T02:39:42.668Z,9.37
2023-03-18T02:42:46.590Z,10.43
2023-03-18T02:46:05.330Z,11.10
2023-03-18T02:49:08.064Z,10.30
2023-03-18T02:52:09.992Z,7.77
2023-03-18T02:55:11.394Z,9.87
2023-03-18T02:58:12.922Z,13.33
2023-03-18T03:01:15.930Z,7.27
2023-03-18T03:04:18.769Z,6.10
2023-03-18T03:07:20.424Z,9.60
2023-03-18T03:10:26.138Z,7.77
2023-03-18T03:13:27.787Z,9.23
2023-03-18T03:16:29.661Z,9.83
2023-03-18T03:19:32.008Z,12.53
2023-03-18T03:22:34.160Z,13.80
2023-03-18T03:25:36.453Z,13.77
2023-03-18T03:28:38.108Z,11.10
2023-03-18T03:31:39.683Z,13.33
2023-03-18T03:34:41.529Z,11.50
2023-03-18T03:37:46.854Z,7.27
2023-03-18T03:40:48.487Z,7.73
2023-03-18T03:43:50.440Z,8.57
2023-03-18T03:46:51.942Z,8.00
2023-03-18T03:49:54.376Z,7.17
2023-03-18T03:52:55.964Z,9.40
2023-03-18T03:55:59.233Z,7.20
2023-03-18T03:59:01.444Z,7.70
2023-03-18T04:02:23.607Z,8.47
2023-03-18T04:05:25.792Z,8.33
2023-03-18T04:08:27.524Z,5.10
2023-03-18T04:11:29.786Z,7.90
2023-03-18T04:14:31.727Z,9.70
2023-03-18T04:17:34.662Z,9.70
2023-03-18T04:20:38.057Z,9.67
2023-03-18T04:23:47.769Z,9.60
2023-03-18T04:26:51.539Z,6.30
2023-03-18T04:29:52.990Z,7.00
2023-03-18T04:33:03.148Z,7.57
2023-03-18T04:36:06.379Z,6.97
2023-03-18T04:39:09.555Z,6.80
2023-03-18T04:42:11.469Z,7.27
2023-03-18T04:45:14.023Z,8.83
2023-03-18T04:48:15.587Z,6.47
2023-03-18T04:51:20.594Z,6.37
2023-03-18T04:54:22.500Z,5.50
2023-03-18T04:57:27.616Z,6.70
2023-03-18T05:00:30.131Z,7.63
2023-03-18T05:03:45.320Z,8.23
2023-03-18T05:06:49.260Z,6.80
2023-03-18T05:09:50.713Z,8.00
2023-03-18T05:12:53.279Z,9.20
2023-03-18T05:16:02.559Z,7.60
2023-03-18T05:19:04.437Z,5.57
2023-03-18T05:22:06.922Z,5.20
2023-03-18T05:25:11.435Z,6.27
2023-03-18T05:28:14.249Z,7.87
2023-03-18T05:31:26.327Z,7.77
2023-03-18T05:34:28.244Z,7.43
2023-03-18T05:37:29.851Z,8.77
2023-03-18T05:40:37.538Z,6.60
2023-03-18T05:43:46.214Z,6.53
2023-03-18T05:46:47.799Z,7.80
2023-03-18T05:50:00.049Z,7.80
2023-03-18T05:53:03.819Z,6.50
2023-03-18T05:56:10.400Z,5.83
2023-03-18T05:59:14.065Z,6.13
2023-03-18T06:02:21.790Z,6.83
2023-03-18T06:05:24.296Z,6.93
2023-03-18T06:08:25.744Z,6.47
2023-03-18T06:11:29.290Z,12.53
2023-03-18T06:14:31.334Z,8.23
2023-03-18T06:17:36.567Z,6.73
2023-03-18T06:20:38.108Z,6.43
2023-03-18T06:23:39.561Z,7.07
2023-03-18T06:26:41.690Z,9.57
2023-03-18T06:29:44.071Z,7.30
2023-03-18T06:32:49.304Z,11.40
2023-03-18T06:35:52.507Z,7.97
2023-03-18T06:38:55.851Z,9.10
2023-03-18T06:41:59.501Z,7.20
2023-03-18T06:45:05.691Z,6.90
2023-03-18T06:48:19.793Z,13.00
2023-03-18T06:51:23.021Z,6.13
2023-03-18T06:54:26.200Z,9.10
2023-03-18T06:57:28.928Z,7.17
2023-03-18T07:00:32.510Z,6.57
2023-03-18T07:03:35.689Z,7.50
2023-03-18T07:06:37.960Z,6.47
2023-03-18T07:09:39.464Z,6.23
2023-03-18T07:12:41.026Z,10.00
2023-03-18T07:15:42.901Z,11.33
2023-03-18T07:18:44.709Z,9.03
2023-03-18T07:21:47.436Z,11.47
2023-03-18T07:24:49.166Z,10.70
2023-03-18T07:27:50.632Z,11.70
2023-03-18T07:30:54.357Z,7.67
2023-03-18T07:33:57.260Z,7.17
2023-03-18T07:36:58.902Z,6.63
2023-03-18T07:40:00.406Z,8.87
2023-03-18T07:43:01.868Z,7.70
2023-03-18T07:46:04.477Z,6.23
2023-03-18T07:49:05.961Z,5.80
2023-03-18T07:52:08.644Z,7.53
2023-03-18T07:55:11.874Z,5.33
2023-03-18T07:58:13.599Z,6.37
2023-03-18T08:01:18.258Z,4.93
2023-03-18T08:04:19.928Z,4.27
2023-03-18T08:07:22.935Z,4.60
2023-03-18T08:10:25.318Z,3.40
2023-03-18T08:13:26.979Z,4.17
2023-03-18T08:16:28.598Z,5.73
2023-03-18T08:19:30.177Z,3.20
2023-03-18T08:22:31.925Z,5.63
2023-03-18T08:25:33.545Z,2.87
2023-03-18T08:28:35.067Z,4.70
2023-03-18T08:31:36.570Z,6.33
2023-03-18T08:34:38.137Z,4.83
2023-03-18T08:37:39.573Z,3.03
2023-03-18T08:40:42.303Z,4.57
2023-03-18T08:43:44.991Z,3.07
2023-03-18T08:46:46.487Z,3.60
2023-03-18T08:49:50.366Z,4.53
2023-03-18T08:52:52.763Z,7.10
2023-03-18T08:55:54.260Z,6.10
2023-03-18T08:58:56.034Z,3.17
2023-03-18T09:01:57.673Z,5.67
2023-03-18T09:04:59.112Z,5.47
2023-03-18T09:08:00.515Z,4.80
2023-03-18T09:11:02.111Z,4.97
2023-03-18T09:14:04.833Z,6.70
2023-03-18T09:17:06.595Z,6.73
2023-03-18T09:20:10.810Z,7.33
2023-03-18T09:23:14.268Z,6.17
2023-03-18T09:26:16.897Z,5.77
2023-03-18T09:29:18.305Z,3.43
2023-03-18T09:32:20.136Z,6.80
2023-03-18T09:35:21.757Z,3.47
2023-03-18T09:38:23.638Z,3.87
2023-03-18T09:41:49.531Z,3.33
2023-03-18T09:44:56.781Z,3.77
2023-03-18T09:48:38.828Z,3.10
2023-03-18T09:52:07.051Z,5.37
2023-03-18T09:55:11.527Z,3.33
2023-03-18T09:58:44.932Z,2.93
2023-03-18T10:01:50.531Z,4.30
2023-03-18T10:04:58.406Z,3.10
2023-03-18T10:08:07.616Z,2.80
2023-03-18T10:11:36.047Z,2.97
2023-03-18T10:14:45.858Z,3.87
2023-03-18T10:18:11.515Z,2.20
2023-03-18T10:21:31.108Z,2.73
2023-03-18T10:24:40.540Z,3.83
2023-03-18T10:27:47.896Z,2.00
2023-03-18T10:31:11.168Z,4.93
2023-03-18T10:34:49.121Z,3.63
2023-03-18T10:37:54.455Z,5.77
2023-03-18T10:40:56.279Z,2.30
2023-03-18T10:44:02.899Z,2.97
2023-03-18T10:47:18.934Z,5.43
2023-03-18T10:50:28.518Z,3.73
2023-03-18T10:53:39.814Z,4.70
2023-03-18T10:56:41.850Z,3.13
2023-03-18T10:59:47.577Z,4.70
2023-03-18T11:02:49.733Z,2.93
2023-03-18T11:05:52.544Z,4.07
2023-03-18T11:09:04.924Z,5.30
2023-03-18T11:12:19.379Z,3.07
2023-03-18T11:15:21.013Z,3.60
2023-03-18T11:18:25.767Z,6.70
2023-03-18T11:21:29.244Z,3.00
2023-03-18T11:24:39.521Z,3.27
2023-03-18T11:27:51.090Z,3.00
2023-03-18T11:30:57.446Z,4.10
2023-03-18T11:33:59.201Z,6.80
2023-03-18T11:37:05.899Z,5.37
2023-03-18T11:40:18.280Z,2.93
2023-03-18T11:43:22.842Z,4.80
2023-03-18T11:46:27.577Z,1.70
2023-03-18T11:49:31.201Z,2.73
2023-03-18T11:52:55.947Z,3.00
2023-03-18T11:56:21.451Z,3.20
2023-03-18T11:59:56.320Z,2.37
2023-03-18T12:03:25.352Z,3.00
2023-03-18T12:06:33.003Z,2.87
2023-03-18T12:09:43.761Z,2.47
2023-03-18T12:12:59.765Z,26.57
2023-03-18T12:16:41.223Z,2.70
2023-03-18T12:19:56.939Z,4.87
2023-03-18T12:23:03.248Z,3.90
2023-03-18T12:26:09.454Z,4.33
2023-03-18T12:29:45.833Z,3.63
2023-03-18T12:33:06.291Z,4.57
2023-03-18T12:36:50.053Z,1.90
2023-03-18T12:40:21.328Z,4.63
2023-03-18T12:43:31.793Z,4.07
2023-03-18T12:46:42.121Z,4.17
2023-03-18T12:49:58.587Z,4.33
2023-03-18T12:53:03.352Z,2.13
2023-03-18T12:56:12.377Z,5.13
2023-03-18T12:59:27.532Z,4.37
2023-03-18T13:02:47.808Z,4.53
2023-03-18T13:05:54.407Z,2.50
2023-03-18T13:09:17.100Z,3.17
2023-03-18T13:12:35.222Z,2.73
2023-03-18T13:15:46.249Z,3.20
2023-03-18T13:18:51.921Z,3.03
2023-03-18T13:22:18.223Z,7.43
2023-03-18T13:26:01.581Z,3.60
2023-03-18T13:29:31.284Z,4.27
2023-03-18T13:33:01.164Z,4.80
2023-03-18T13:36:39.082Z,3.87
2023-03-18T13:40:09.346Z,4.47
2023-03-18T13:43:17.344Z,2.30
2023-03-18T13:46:23.601Z,2.27
2023-03-18T13:49:29.754Z,2.90
2023-03-18T13:52:44.820Z,3.20
2023-03-18T13:55:57.579Z,3.87
2023-03-18T13:59:05.672Z,4.50
2023-03-18T14:02:31.097Z,3.03
2023-03-18T14:05:33.210Z,4.30
2023-03-18T14:08:39.143Z,3.60
2023-03-18T14:11:46.810Z,5.47
2023-03-18T14:14:48.166Z,2.23
2023-03-18T14:17:56.912Z,2.97
2023-03-18T14:21:02.604Z,4.03
2023-03-18T14:24:21.888Z,2.33
2023-03-18T14:27:23.391Z,1.93
2023-03-18T14:30:31.687Z,3.20
2023-03-18T14:33:35.155Z,2.83
2023-03-18T14:36:53.643Z,4.87
2023-03-18T14:40:00.895Z,3.30
2023-03-18T14:43:10.248Z,2.80
2023-03-18T14:46:18.854Z,1.83
2023-03-18T14:49:44.674Z,3.23
2023-03-18T14:52:54.414Z,4.70
2023-03-18T14:55:58.703Z,3.90
2023-03-18T14:59:00.973Z,3.50
2023-03-18T15:02:06.532Z,3.03
2023-03-18T15:05:10.543Z,2.13
2023-03-18T15:08:21.019Z,2.93
2023-03-18T15:11:23.687Z,2.80
2023-03-18T15:14:32.011Z,1.87
2023-03-18T15:17:33.482Z,2.20
2023-03-18T15:20:36.254Z,1.90
2023-03-18T15:23:45.610Z,3.30
2023-03-18T15:26:56.879Z,4.33
2023-03-18T15:30:00.907Z,2.10
2023-03-18T15:33:20.454Z,2.70
2023-03-18T15:36:21.852Z,2.63
2023-03-18T15:39:32.058Z,2.10
2023-03-18T15:42:34.571Z,2.13
2023-03-18T15:45:40.995Z,2.93
2023-03-18T15:48:46.503Z,2.57
2023-03-18T15:51:49.572Z,4.17
2023-03-18T15:54:52.012Z,2.07
2023-03-18T15:57:53.782Z,4.53
2023-03-18T16:00:56.686Z,2.80
2023-03-18T16:03:58.107Z,1.73
2023-03-18T16:06:59.623Z,3.70
2023-03-18T16:10:01.538Z,4.63
2023-03-18T16:13:04.257Z,2.97
2023-03-18T16:16:06.266Z,4.63
2023-03-18T16:19:25.671Z,3.23
2023-03-18T16:22:27.629Z,2.20
2023-03-18T16:25:29.020Z,1.70
2023-03-18T16:28:30.827Z,3.60
2023-03-18T16:31:32.917Z,2.00
2023-03-18T16:34:34.813Z,2.90
2023-03-18T16:37:36.227Z,3.83
2023-03-18T16:40:37.660Z,3.40
2023-03-18T16:43:39.102Z,2.00
2023-03-18T16:46:41.522Z,3.60
2023-03-18T16:49:43.338Z,3.53
2023-03-18T16:52:47.363Z,2.80
2023-03-18T16:55:55.567Z,1.73
2023-03-18T16:58:57.857Z,2.53
2023-03-18T17:02:00.321Z,2.33
2023-03-18T17:05:01.996Z,1.90
2023-03-18T17:08:03.387Z,4.40
2023-03-18T17:11:05.257Z,2.67
2023-03-18T17:14:11.100Z,4.37
2023-03-18T17:17:30.548Z,4.90
2023-03-18T17:20:32.452Z,3.10
2023-03-18T17:23:34.521Z,4.03
2023-03-18T17:26:36.024Z,3.40
2023-03-18T17:29:37.487Z,4.30
2023-03-18T17:32:39.699Z,4.57
2023-03-18T17:35:41.129Z,4.10
2023-03-18T17:38:42.627Z,2.60
2023-03-18T17:41:44.086Z,3.97
2023-03-18T17:44:45.526Z,3.97
2023-03-18T17:47:47.521Z,5.33
2023-03-18T17:50:51.655Z,3.60
2023-03-18T17:53:59.002Z,2.50
2023-03-18T17:57:00.402Z,4.03
2023-03-18T18:00:01.843Z,10.13
2023-03-18T18:03:19.306Z,7.27
2023-03-18T18:06:28.840Z,7.53
2023-03-18T18:09:30.364Z,5.70
2023-03-18T18:12:31.763Z,5.57
2023-03-18T18:15:33.417Z,12.77
2023-03-18T18:18:36.303Z,6.90
2023-03-18T18:21:37.799Z,8.60
2023-03-18T18:24:39.220Z,7.07
2023-03-18T18:27:41.634Z,5.57
2023-03-18T18:30:43.021Z,4.90
2023-03-18T18:33:45.861Z,6.07
2023-03-18T18:36:48.627Z,6.60
2023-03-18T18:39:50.020Z,12.17
2023-03-18T18:42:51.619Z,5.03
2023-03-18T18:45:54.563Z,4.43
2023-03-18T18:48:56.439Z,5.37
2023-03-18T18:52:00.155Z,5.83
2023-03-18T18:55:01.588Z,5.20
2023-03-18T18:58:04.226Z,3.53
2023-03-18T19:01:06.136Z,3.17
2023-03-18T19:04:14.485Z,5.10
2023-03-18T19:07:16.111Z,6.07
2023-03-18T19:10:18.241Z,4.10
2023-03-18T19:13:19.697Z,6.30
2023-03-18T19:16:33.969Z,3.77
2023-03-18T19:19:35.539Z,6.27
2023-03-18T19:22:36.999Z,7.63
2023-03-18T19:25:38.444Z,4.40
2023-03-18T19:28:58.380Z,5.53
2023-03-18T19:32:03.470Z,12.10
2023-03-18T19:35:05.523Z,14.47
2023-03-18T19:38:08.169Z,15.43
2023-03-18T19:41:09.580Z,18.23
2023-03-18T19:44:20.396Z,17.43
2023-03-18T19:47:28.057Z,17.17
2023-03-18T19:50:29.476Z,16.50
2023-03-18T19:53:31.416Z,18.03
2023-03-18T19:56:32.797Z,17.80
2023-03-18T19:59:39.337Z,15.97
2023-03-18T20:02:41.250Z,15.47
2023-03-18T20:05:42.774Z,19.27
2023-03-18T20:08:44.388Z,14.17
2023-03-18T20:11:48.578Z,15.70
2023-03-18T20:14:50.576Z,17.73
2023-03-18T20:17:52.502Z,19.30
2023-03-18T20:20:54.059Z,18.60
2023-03-18T20:24:00.913Z,16.67
2023-03-18T20:27:02.316Z,18.27
2023-03-18T20:30:30.247Z,17.10
2023-03-18T20:33:32.469Z,15.27
2023-03-18T20:36:33.949Z,14.80
2023-03-18T20:39:35.525Z,17.50
2023-03-18T20:42:37.052Z,16.90
2023-03-18T20:45:38.521Z,15.30
2023-03-18T20:48:40.888Z,14.13
2023-03-18T20:51:42.436Z,17.20
2023-03-18T20:54:43.903Z,15.40
2023-03-18T20:57:45.715Z,18.10
2023-03-18T21:00:47.434Z,19.37
2023-03-18T21:03:48.938Z,13.67
2023-03-18T21:06:50.404Z,14.30
2023-03-18T21:09:52.091Z,15.87
2023-03-18T21:12:53.748Z,12.60
2023-03-18T21:15:56.907Z,9.80
2023-03-18T21:18:58.282Z,11.90
2023-03-18T21:22:00.242Z,10.43
2023-03-18T21:25:01.751Z,10.40
2023-03-18T21:28:03.463Z,9.57
2023-03-18T21:31:20.327Z,10.33
2023-03-18T21:34:22.332Z,10.10
2023-03-18T21:37:26.418Z,10.03
2023-03-18T21:40:27.939Z,9.80
2023-03-18T21:43:33.620Z,10.27
2023-03-18T21:46:35.170Z,9.80
2023-03-18T21:49:36.587Z,10.90
2023-03-18T21:52:38.606Z,10.47
2023-03-18T21:55:39.977Z,10.63
2023-03-18T21:58:41.375Z,9.47
2023-03-18T22:01:42.909Z,10.77
2023-03-18T22:04:44.369Z,10.20
2023-03-18T22:07:46.070Z,11.07
2023-03-18T22:10:49.680Z,8.57
2023-03-18T22:13:51.160Z,14.50
2023-03-18T22:16:52.583Z,9.17
2023-03-18T22:19:55.593Z,11.47
2023-03-18T22:22:57.096Z,13.00
2023-03-18T22:25:58.613Z,11.43
2023-03-18T22:29:00.012Z,9.27
2023-03-18T22:32:01.394Z,9.73
2023-03-18T22:35:07.011Z,7.67
2023-03-18T22:38:13.780Z,8.23
2023-03-18T22:41:21.643Z,7.20
2023-03-18T22:44:24.108Z,7.67
2023-03-18T22:47:26.162Z,9.17
2023-03-18T22:50:30.458Z,9.07
2023-03-18T22:53:38.447Z,8.43
2023-03-18T22:56:39.832Z,10.17
2023-03-18T22:59:41.215Z,7.47
2023-03-18T23:02:42.749Z,6.90
2023-03-18T23:05:45.943Z,8.77
2023-03-18T23:08:47.854Z,9.40
2023-03-18T23:11:49.355Z,8.20
2023-03-18T23:14:50.848Z,10.77
2023-03-18T23:17:52.325Z,12.03
2023-03-18T23:20:53.789Z,8.50
2023-03-18T23:23:56.137Z,7.50
2023-03-18T23:26:57.657Z,10.10
2023-03-18T23:29:59.036Z,7.47
2023-03-18T23:33:00.847Z,11.77
2023-03-18T23:36:02.600Z,10.37
2023-03-18T23:39:04.036Z,8.40
2023-03-18T23:42:06.129Z,8.17
2023-03-18T23:45:08.315Z,8.47
2023-03-18T23:48:09.907Z,10.70
2023-03-18T23:51:11.295Z,9.13
2023-03-18T23:54:12.936Z,10.90
2023-03-18T23:57:14.372Z,10.43
